createdAt,value
2023-01-17T00:00:30.324Z,14.68
2023-01-17T00:03:33.874Z,15.17
2023-01-17T00:06:54.534Z,11.35
2023-01-17T00:09:59.176Z,12.45
2023-01-17T00:13:03.583Z,11.75
2023-01-17T00:16:06.601Z,11.18
2023-01-17T00:19:27.461Z,12.55
2023-01-17T00:22:50.223Z,14.32
2023-01-17T00:26:04.997Z,14.30
2023-01-17T00:29:07.320Z,14.57
2023-01-17T00:32:09.619Z,14.50
2023-01-17T00:35:11.947Z,14.90
2023-01-17T00:38:16.558Z,14.18
2023-01-17T00:41:18.934Z,13.10
2023-01-17T00:44:39.551Z,12.50
2023-01-17T00:48:03.537Z,13.13
2023-01-17T00:51:24.741Z,13.20
2023-01-17T00:54:45.478Z,13.73
2023-01-17T00:58:06.169Z,13.57
2023-01-17T01:01:26.904Z,12.77
2023-01-17T01:04:47.932Z,13.63
2023-01-17T01:08:09.167Z,12.90
2023-01-17T01:11:33.987Z,12.25
2023-01-17T01:14:54.573Z,12.38
2023-01-17T01:18:15.161Z,13.98
2023-01-17T01:21:35.813Z,13.52
2023-01-17T01:24:56.567Z,12.93
2023-01-17T01:28:25.738Z,13.25
2023-01-17T01:31:46.421Z,12.77
2023-01-17T01:34:48.811Z,13.02
2023-01-17T01:37:51.146Z,12.45
2023-01-17T01:40:56.148Z,12.93
2023-01-17T01:43:58.585Z,13.02
2023-01-17T01:47:01.096Z,11.48
2023-01-17T01:50:07.200Z,13.43
2023-01-17T01:53:10.789Z,14.57
2023-01-17T01:56:15.324Z,11.98
2023-01-17T01:59:20.817Z,11.18
2023-01-17T02:02:23.290Z,14.70
2023-01-17T02:05:29.207Z,14.63
2023-01-17T02:08:31.687Z,11.55
2023-01-17T02:11:36.081Z,11.43
2023-01-17T02:14:38.440Z,11.25
2023-01-17T02:18:37.900Z,13.32
2023-01-17T02:22:15.757Z,12.88
2023-01-17T02:25:26.793Z,12.68
2023-01-17T02:29:10.945Z,13.10
2023-01-17T02:32:38.061Z,12.45
2023-01-17T02:35:44.752Z,11.37
2023-01-17T02:39:09.414Z,11.30
2023-01-17T02:42:17.939Z,8.90
2023-01-17T02:45:20.960Z,10.13
2023-01-17T02:48:27.549Z,11.07
2023-01-17T02:51:42.145Z,9.57
2023-01-17T02:54:44.465Z,11.70
2023-01-17T02:57:58.004Z,9.30
2023-01-17T03:01:03.135Z,10.65
2023-01-17T03:04:44.560Z,9.63
2023-01-17T03:07:48.420Z,9.23
2023-01-17T03:10:50.825Z,11.05
2023-01-17T03:13:57.300Z,9.75
2023-01-17T03:16:59.895Z,10.07
2023-01-17T03:20:02.348Z,11.48
2023-01-17T03:23:04.717Z,11.23
2023-01-17T03:26:07.198Z,10.48
2023-01-17T03:29:09.828Z,9.73
2023-01-17T03:32:12.289Z,9.85
2023-01-17T03:35:14.762Z,9.57
2023-01-17T03:38:17.361Z,9.33
2023-01-17T03:41:19.828Z,9.32
2023-01-17T03:44:22.456Z,8.60
2023-01-17T03:47:24.826Z,9.67
2023-01-17T03:50:27.278Z,8.48
2023-01-17T03:53:29.673Z,8.20
2023-01-17T03:56:32.011Z,9.32
2023-01-17T03:59:34.666Z,9.57
2023-01-17T04:02:37.455Z,8.20
2023-01-17T04:05:39.799Z,8.27
2023-01-17T04:08:42.498Z,9.20
2023-01-17T04:11:45.489Z,8.88
2023-01-17T04:14:48.224Z,9.48
2023-01-17T04:17:50.680Z,8.40
2023-01-17T04:20:53.050Z,8.15
2023-01-17T04:23:55.365Z,8.63
2023-01-17T04:26:57.794Z,8.52
2023-01-17T04:30:00.222Z,9.13
2023-01-17T04:33:03.056Z,8.68
2023-01-17T04:36:06.647Z,8.75
2023-01-17T04:39:09.084Z,8.67
2023-01-17T04:42:11.408Z,8.93
2023-01-17T04:45:14.415Z,9.30
2023-01-17T04:48:17.017Z,8.37
2023-01-17T04:51:19.590Z,8.55
2023-01-17T04:54:22.110Z,8.38
2023-01-17T04:57:25.248Z,8.98
2023-01-17T05:00:27.673Z,9.40
2023-01-17T05:03:30.535Z,10.90
2023-01-17T05:06:32.882Z,7.65
2023-01-17T05:09:35.464Z,8.93
2023-01-17T05:12:37.889Z,9.20
2023-01-17T05:15:40.533Z,8.80
2023-01-17T05:18:42.921Z,10.03
2023-01-17T05:21:45.282Z,12.75
2023-01-17T05:24:48.149Z,16.42
2023-01-17T05:27:50.813Z,14.65
2023-01-17T05:30:53.273Z,10.35
2023-01-17T05:33:55.788Z,10.05
2023-01-17T05:36:59.065Z,9.75
2023-01-17T05:40:01.447Z,10.30
2023-01-17T05:43:04.193Z,10.10
2023-01-17T05:46:06.642Z,9.98
2023-01-17T05:49:09.126Z,10.20
2023-01-17T05:52:11.500Z,10.52
2023-01-17T05:55:13.912Z,14.02
2023-01-17T05:58:19.714Z,11.68
2023-01-17T06:01:22.373Z,12.48
2023-01-17T06:04:24.772Z,12.80
2023-01-17T06:07:27.110Z,11.77
2023-01-17T06:10:29.739Z,6.33
2023-01-17T06:13:32.663Z,8.18
2023-01-17T06:16:35.340Z,10.07
2023-01-17T06:19:37.700Z,7.90
2023-01-17T06:22:40.079Z,6.30
2023-01-17T06:25:45.062Z,6.40
2023-01-17T06:28:48.032Z,7.25
2023-01-17T06:31:50.633Z,4.85
2023-01-17T06:34:53.004Z,7.15
2023-01-17T06:37:58.106Z,9.10
2023-01-17T06:41:04.408Z,7.70
2023-01-17T06:44:07.819Z,9.77
2023-01-17T06:47:10.242Z,8.18
2023-01-17T06:50:14.643Z,8.97
2023-01-17T06:53:17.232Z,8.38
2023-01-17T06:56:20.042Z,10.23
2023-01-17T06:59:22.398Z,7.60
2023-01-17T07:02:25.057Z,9.70
2023-01-17T07:05:29.131Z,10.80
2023-01-17T07:08:33.549Z,12.77
2023-01-17T07:11:37.419Z,11.67
2023-01-17T07:14:40.885Z,9.45
2023-01-17T07:17:43.971Z,9.20
2023-01-17T07:20:46.893Z,11.60
2023-01-17T07:23:49.441Z,8.85
2023-01-17T07:26:51.965Z,10.25
2023-01-17T07:29:54.555Z,10.63
2023-01-17T07:32:56.988Z,12.82
2023-01-17T07:36:03.982Z,9.25
2023-01-17T07:39:06.501Z,13.88
2023-01-17T07:42:09.329Z,7.30
2023-01-17T07:45:14.222Z,5.30
2023-01-17T07:48:18.344Z,6.75
2023-01-17T07:51:20.751Z,7.20
2023-01-17T07:54:24.166Z,5.75
2023-01-17T07:57:26.525Z,6.07
2023-01-17T08:00:30.236Z,26.17
2023-01-17T08:03:40.231Z,4.70
2023-01-17T08:06:47.532Z,6.47
2023-01-17T08:09:50.545Z,7.95
2023-01-17T08:12:53.033Z,7.47
2023-01-17T08:15:55.472Z,9.40
2023-01-17T08:18:57.980Z,15.70
2023-01-17T08:22:00.375Z,9.30
2023-01-17T08:25:02.841Z,7.70
2023-01-17T08:28:05.490Z,6.07
2023-01-17T08:31:09.715Z,3.25
2023-01-17T08:34:14.170Z,4.85
2023-01-17T08:37:16.572Z,4.28
2023-01-17T08:40:19.814Z,4.75
2023-01-17T08:43:22.445Z,3.53
2023-01-17T08:46:24.887Z,4.00
2023-01-17T08:49:30.448Z,3.25
2023-01-17T08:52:33.956Z,3.13
2023-01-17T08:55:39.627Z,3.17
2023-01-17T08:58:42.079Z,4.45
2023-01-17T09:01:46.002Z,4.32
2023-01-17T09:04:49.929Z,5.05
2023-01-17T09:07:52.328Z,4.47
2023-01-17T09:10:54.704Z,4.82
2023-01-17T09:13:57.100Z,4.33
2023-01-17T09:16:59.500Z,3.55
2023-01-17T09:20:02.415Z,3.28
2023-01-17T09:23:04.877Z,3.87
2023-01-17T09:26:07.741Z,4.35
2023-01-17T09:29:10.249Z,4.32
2023-01-17T09:32:12.952Z,3.97
2023-01-17T09:35:15.642Z,3.78
2023-01-17T09:38:18.105Z,3.58
2023-01-17T09:41:27.998Z,4.38
2023-01-17T09:44:45.010Z,4.23
2023-01-17T09:47:53.859Z,4.70
2023-01-17T09:51:24.137Z,4.18
2023-01-17T09:54:36.672Z,4.27
2023-01-17T09:58:00.298Z,3.83
2023-01-17T10:01:15.602Z,2.80
2023-01-17T10:04:54.905Z,3.08
2023-01-17T10:08:04.371Z,3.53
2023-01-17T10:11:39.295Z,2.85
2023-01-17T10:14:55.427Z,2.85
2023-01-17T10:18:05.381Z,2.30
2023-01-17T10:21:19.856Z,3.17
2023-01-17T10:24:35.630Z,2.53
2023-01-17T10:27:41.852Z,2.90
2023-01-17T10:30:51.831Z,2.13
2023-01-17T10:33:58.370Z,2.30
2023-01-17T10:37:15.799Z,1.55
2023-01-17T10:40:29.773Z,1.85
2023-01-17T10:43:40.892Z,1.73
2023-01-17T10:46:55.624Z,1.30
2023-01-17T10:49:59.423Z,1.40
2023-01-17T10:53:16.366Z,1.77
2023-01-17T10:56:25.735Z,1.70
2023-01-17T10:59:31.814Z,1.37
2023-01-17T11:02:39.960Z,1.20
2023-01-17T11:05:43.506Z,0.65
2023-01-17T11:08:57.337Z,1.17
2023-01-17T11:11:59.697Z,1.23
2023-01-17T11:15:10.846Z,1.05
2023-01-17T11:18:19.578Z,1.50
2023-01-17T11:21:24.345Z,1.70
2023-01-17T11:24:33.377Z,1.35
2023-01-17T11:27:39.526Z,1.05
2023-01-17T11:30:52.290Z,1.40
2023-01-17T11:34:29.477Z,0.98
2023-01-17T11:37:32.071Z,0.77
2023-01-17T11:40:42.828Z,1.40
2023-01-17T11:44:20.349Z,0.88
2023-01-17T11:47:22.663Z,1.38
2023-01-17T11:50:26.634Z,1.30
2023-01-17T11:53:40.424Z,1.53
2023-01-17T11:56:46.132Z,36.95
2023-01-17T11:59:49.086Z,46.03
2023-01-17T12:03:06.408Z,16.47
2023-01-17T12:06:20.239Z,2.20
2023-01-17T12:09:35.739Z,1.85
2023-01-17T12:13:13.240Z,0.80
2023-01-17T12:16:34.132Z,10.23
2023-01-17T12:20:05.918Z,3.85
2023-01-17T12:23:28.401Z,0.93
2023-01-17T12:26:55.080Z,2.80
2023-01-17T12:30:26.145Z,1.77
2023-01-17T12:33:38.809Z,1.00
2023-01-17T12:36:49.475Z,1.70
2023-01-17T12:40:05.133Z,1.20
2023-01-17T12:43:25.407Z,1.00
2023-01-17T12:46:38.464Z,0.85
2023-01-17T12:50:00.791Z,0.95
2023-01-17T12:53:16.426Z,0.60
2023-01-17T12:56:28.613Z,0.80
2023-01-17T12:59:49.446Z,0.60
2023-01-17T13:03:24.702Z,0.82
2023-01-17T13:06:45.733Z,1.80
2023-01-17T13:10:03.373Z,1.57
2023-01-17T13:13:26.728Z,1.00
2023-01-17T13:16:59.968Z,0.98
2023-01-17T13:20:28.841Z,1.02
2023-01-17T13:23:44.945Z,0.98
2023-01-17T13:26:56.479Z,0.90
2023-01-17T13:30:22.200Z,1.13
2023-01-17T13:33:49.029Z,1.00
2023-01-17T13:36:54.199Z,0.90
2023-01-17T13:40:25.181Z,1.70
2023-01-17T13:43:39.714Z,0.90
2023-01-17T13:47:05.126Z,0.88
2023-01-17T13:50:36.395Z,0.70
2023-01-17T13:53:38.858Z,0.95
2023-01-17T13:56:41.336Z,0.95
2023-01-17T13:59:44.057Z,0.80
2023-01-17T14:02:48.029Z,1.10
2023-01-17T14:05:56.932Z,0.97
2023-01-17T14:09:08.084Z,1.20
2023-01-17T14:12:10.452Z,1.38
2023-01-17T14:15:31.281Z,1.23
2023-01-17T14:18:40.047Z,1.08
2023-01-17T14:21:42.887Z,1.00
2023-01-17T14:25:03.897Z,1.50
2023-01-17T14:28:21.851Z,1.65
2023-01-17T14:31:24.764Z,4.50
2023-01-17T14:34:27.444Z,3.47
2023-01-17T14:37:32.662Z,2.10
2023-01-17T14:40:38.500Z,2.75
2023-01-17T14:43:46.315Z,30.85
2023-01-17T14:46:49.248Z,3.20
2023-01-17T14:50:10.910Z,4.00
2023-01-17T14:53:13.376Z,6.70
2023-01-17T14:56:17.748Z,4.88
2023-01-17T14:59:22.125Z,5.10
2023-01-17T15:02:24.991Z,5.05
2023-01-17T15:05:30.185Z,4.70
2023-01-17T15:08:35.443Z,4.53
2023-01-17T15:11:38.791Z,3.42
2023-01-17T15:14:44.490Z,3.90
2023-01-17T15:17:46.955Z,5.70
2023-01-17T15:20:58.032Z,5.43
2023-01-17T15:24:07.080Z,4.85
2023-01-17T15:27:12.753Z,3.88
2023-01-17T15:30:16.118Z,4.57
2023-01-17T15:33:21.110Z,18.80
2023-01-17T15:36:30.105Z,13.75
2023-01-17T15:39:38.934Z,7.27
2023-01-17T15:42:43.582Z,2.58
2023-01-17T15:45:55.977Z,2.75
2023-01-17T15:49:17.763Z,2.60
2023-01-17T15:52:21.573Z,16.20
2023-01-17T15:55:29.734Z,4.30
2023-01-17T15:58:32.222Z,7.93
2023-01-17T16:01:34.857Z,9.52
2023-01-17T16:04:42.331Z,10.00
2023-01-17T16:07:44.839Z,8.23
2023-01-17T16:10:47.317Z,7.90
2023-01-17T16:13:50.345Z,17.70
2023-01-17T16:16:53.519Z,15.50
2023-01-17T16:19:56.014Z,19.70
2023-01-17T16:23:00.329Z,20.42
2023-01-17T16:26:02.976Z,26.33
2023-01-17T16:29:07.588Z,19.67
2023-01-17T16:32:10.146Z,16.17
2023-01-17T16:35:19.130Z,17.60
2023-01-17T16:38:21.583Z,16.48
2023-01-17T16:41:23.902Z,11.40
2023-01-17T16:44:26.248Z,7.60
2023-01-17T16:47:28.622Z,8.00
2023-01-17T16:50:31.078Z,6.70
2023-01-17T16:53:35.405Z,6.07
2023-01-17T16:56:37.848Z,5.88
2023-01-17T16:59:50.433Z,17.35
2023-01-17T17:02:53.876Z,23.25
2023-01-17T17:06:01.078Z,26.45
2023-01-17T17:09:03.702Z,18.45
2023-01-17T17:12:06.736Z,20.30
2023-01-17T17:15:10.782Z,14.93
2023-01-17T17:18:15.167Z,10.65
2023-01-17T17:21:17.525Z,11.37
2023-01-17T17:24:20.239Z,18.73
2023-01-17T17:27:26.428Z,13.55
2023-01-17T17:30:29.070Z,11.70
2023-01-17T17:33:31.438Z,11.30
2023-01-17T17:36:35.282Z,12.77
2023-01-17T17:39:38.795Z,12.98
2023-01-17T17:42:42.860Z,11.87
2023-01-17T17:45:45.290Z,11.48
2023-01-17T17:48:48.679Z,9.50
2023-01-17T17:51:51.200Z,9.97
2023-01-17T17:54:53.749Z,6.40
2023-01-17T17:57:56.593Z,5.53
2023-01-17T18:01:02.732Z,9.20
2023-01-17T18:04:07.437Z,5.22
2023-01-17T18:07:09.963Z,4.72
2023-01-17T18:10:12.317Z,4.35
2023-01-17T18:13:14.829Z,2.70
2023-01-17T18:16:26.385Z,3.40
2023-01-17T18:19:29.835Z,3.38
2023-01-17T18:22:33.548Z,3.67
2023-01-17T18:25:36.548Z,3.78
2023-01-17T18:28:38.902Z,3.58
2023-01-17T18:31:42.737Z,14.98
2023-01-17T18:34:47.069Z,4.97
2023-01-17T18:37:49.637Z,13.30
2023-01-17T18:40:52.389Z,12.20
2023-01-17T18:43:57.770Z,6.77
2023-01-17T18:47:04.734Z,4.53
2023-01-17T18:50:07.430Z,4.63
2023-01-17T18:53:10.037Z,8.10
2023-01-17T18:56:18.856Z,4.95
2023-01-17T18:59:23.378Z,4.15
2023-01-17T19:02:26.992Z,4.32
2023-01-17T19:05:29.458Z,5.80
2023-01-17T19:08:34.004Z,5.82
2023-01-17T19:11:36.915Z,6.07
2023-01-17T19:14:39.986Z,4.60
2023-01-17T19:17:42.549Z,5.47
2023-01-17T19:20:45.959Z,4.78
2023-01-17T19:23:48.918Z,4.30
2023-01-17T19:26:53.239Z,4.25
2023-01-17T19:29:55.940Z,4.95
2023-01-17T19:32:58.587Z,3.80
2023-01-17T19:36:03.734Z,4.75
2023-01-17T19:39:09.488Z,5.90
2023-01-17T19:42:15.651Z,5.15
2023-01-17T19:45:18.319Z,7.00
2023-01-17T19:48:22.573Z,8.75
2023-01-17T19:51:26.830Z,10.70
2023-01-17T19:54:29.464Z,11.17
2023-01-17T19:57:34.993Z,11.02
2023-01-17T20:00:46.134Z,10.60
2023-01-17T20:03:50.103Z,10.13
2023-01-17T20:06:53.570Z,11.00
2023-01-17T20:09:56.140Z,10.45
2023-01-17T20:12:58.731Z,11.45
2023-01-17T20:16:03.840Z,8.07
2023-01-17T20:19:06.733Z,10.50
2023-01-17T20:22:09.302Z,10.63
2023-01-17T20:25:12.305Z,10.20
2023-01-17T20:28:14.846Z,11.00
2023-01-17T20:31:27.445Z,8.32
2023-01-17T20:34:31.497Z,8.15
2023-01-17T20:37:34.173Z,7.95
2023-01-17T20:40:36.833Z,7.20
2023-01-17T20:43:40.073Z,6.30
2023-01-17T20:46:43.063Z,6.07
2023-01-17T20:49:45.657Z,6.43
2023-01-17T20:52:51.143Z,5.57
2023-01-17T20:55:57.469Z,6.47
2023-01-17T20:59:03.928Z,6.38
2023-01-17T21:02:09.995Z,5.00
2023-01-17T21:05:12.940Z,6.18
2023-01-17T21:08:17.767Z,5.20
2023-01-17T21:11:23.693Z,6.20
2023-01-17T21:14:26.443Z,5.53
2023-01-17T21:17:29.072Z,5.83
2023-01-17T21:20:34.717Z,4.55
2023-01-17T21:23:39.035Z,5.18
2023-01-17T21:26:44.435Z,4.90
2023-01-17T21:29:47.528Z,4.20
2023-01-17T21:32:49.995Z,5.60
2023-01-17T21:35:52.970Z,6.22
2023-01-17T21:38:57.802Z,4.97
2023-01-17T21:42:00.602Z,3.70
2023-01-17T21:45:03.008Z,3.40
2023-01-17T21:48:12.070Z,3.33
2023-01-17T21:51:14.710Z,3.90
2023-01-17T21:54:17.060Z,3.58
2023-01-17T21:57:40.251Z,5.37
2023-01-17T22:00:43.395Z,4.25
2023-01-17T22:03:52.740Z,4.93
2023-01-17T22:06:55.101Z,4.90
2023-01-17T22:09:57.557Z,3.10
2023-01-17T22:13:00.036Z,5.05
2023-01-17T22:16:04.727Z,4.93
2023-01-17T22:19:08.160Z,4.43
2023-01-17T22:22:10.507Z,6.90
2023-01-17T22:25:12.852Z,3.83
2023-01-17T22:28:15.267Z,4.23
2023-01-17T22:31:19.277Z,4.68
2023-01-17T22:34:22.848Z,4.05
2023-01-17T22:37:25.697Z,3.33
2023-01-17T22:40:28.768Z,4.75
2023-01-17T22:43:31.074Z,4.95
2023-01-17T22:46:37.180Z,5.25
2023-01-17T22:49:39.652Z,5.03
2023-01-17T22:52:41.983Z,4.63
2023-01-17T22:55:44.344Z,4.20
2023-01-17T22:58:49.090Z,3.13
2023-01-17T23:01:51.937Z,3.50
2023-01-17T23:04:54.370Z,3.95
2023-01-17T23:07:57.192Z,3.65
2023-01-17T23:11:37.800Z,4.13
2023-01-17T23:14:58.737Z,4.20
2023-01-17T23:18:19.473Z,2.75
2023-01-17T23:21:22.178Z,3.23
2023-01-17T23:24:24.750Z,4.40
2023-01-17T23:28:05.336Z,3.53
2023-01-17T23:31:10.272Z,2.87
2023-01-17T23:34:12.596Z,2.70
2023-01-17T23:37:15.187Z,2.25
2023-01-17T23:40:18.199Z,2.50
2023-01-17T23:43:23.628Z,1.80
2023-01-17T23:46:26.568Z,2.55
2023-01-17T23:49:31.345Z,2.15
2023-01-17T23:52:33.748Z,2.13
2023-01-17T23:55:41.944Z,2.63
2023-01-17T23:58:44.510Z,2.20
